sensor_id;sensor_type;location;lat;lon;timestamp;P1;durP1;ratioP1;P2;durP2;ratioP2
20727;SDS011;10525;50.154;8.198;2023-02-15T00:01:28;85.13;;;15.93;;
20727;SDS011;10525;50.154;8.198;2023-02-15T00:03:55;64.47;;;14.33;;
20727;SDS011;10525;50.154;8.198;2023-02-15T00:06:23;57.83;;;15.10;;
20727;SDS011;10525;50.154;8.198;2023-02-15T00:08:50;50.83;;;14.80;;
20727;SDS011;10525;50.154;8.198;2023-02-15T00:11:18;71.23;;;15.00;;
20727;SDS011;10525;50.154;8.198;2023-02-15T00:14:04;66.67;;;14.33;;
20727;SDS011;10525;50.154;8.198;2023-02-15T00:16:32;52.50;;;14.40;;
20727;SDS011;10525;50.154;8.198;2023-02-15T00:18:59;74.20;;;14.60;;
20727;SDS011;10525;50.154;8.198;2023-02-15T00:21:28;62.83;;;15.07;;
20727;SDS011;10525;50.154;8.198;2023-02-15T00:23:55;90.67;;;17.77;;
20727;SDS011;10525;50.154;8.198;2023-02-15T00:26:23;52.30;;;14.07;;
20727;SDS011;10525;50.154;8.198;2023-02-15T00:28:50;47.63;;;13.20;;
20727;SDS011;10525;50.154;8.198;2023-02-15T00:31:17;48.80;;;14.40;;
20727;SDS011;10525;50.154;8.198;2023-02-15T00:33:44;37.93;;;14.10;;
20727;SDS011;10525;50.154;8.198;2023-02-15T00:36:11;48.10;;;13.03;;
20727;SDS011;10525;50.154;8.198;2023-02-15T00:38:39;48.40;;;12.97;;
20727;SDS011;10525;50.154;8.198;2023-02-15T00:41:06;40.47;;;11.80;;
20727;SDS011;10525;50.154;8.198;2023-02-15T00:43:34;35.90;;;12.87;;
20727;SDS011;10525;50.154;8.198;2023-02-15T00:46:01;34.23;;;11.97;;
20727;SDS011;10525;50.154;8.198;2023-02-15T00:48:29;55.27;;;13.30;;
20727;SDS011;10525;50.154;8.198;2023-02-15T00:50:57;38.07;;;13.40;;
20727;SDS011;10525;50.154;8.198;2023-02-15T00:53:25;38.73;;;12.67;;
20727;SDS011;10525;50.154;8.198;2023-02-15T00:55:54;38.33;;;12.50;;
20727;SDS011;10525;50.154;8.198;2023-02-15T00:58:21;33.37;;;12.23;;
20727;SDS011;10525;50.154;8.198;2023-02-15T01:00:48;35.77;;;12.97;;
20727;SDS011;10525;50.154;8.198;2023-02-15T01:03:16;42.20;;;11.73;;
20727;SDS011;10525;50.154;8.198;2023-02-15T01:05:43;36.07;;;12.60;;
20727;SDS011;10525;50.154;8.198;2023-02-15T01:08:10;39.73;;;11.80;;
20727;SDS011;10525;50.154;8.198;2023-02-15T01:10:37;48.23;;;12.37;;
20727;SDS011;10525;50.154;8.198;2023-02-15T01:13:05;46.63;;;12.03;;
20727;SDS011;10525;50.154;8.198;2023-02-15T01:15:33;58.30;;;13.50;;
20727;SDS011;10525;50.154;8.198;2023-02-15T01:18:00;40.27;;;13.70;;
20727;SDS011;10525;50.154;8.198;2023-02-15T01:20:28;45.93;;;13.23;;
20727;SDS011;10525;50.154;8.198;2023-02-15T01:22:56;39.03;;;12.93;;
20727;SDS011;10525;50.154;8.198;2023-02-15T01:25:23;51.63;;;12.73;;
20727;SDS011;10525;50.154;8.198;2023-02-15T01:27:50;52.23;;;13.30;;
20727;SDS011;10525;50.154;8.198;2023-02-15T01:30:18;56.43;;;13.80;;
20727;SDS011;10525;50.154;8.198;2023-02-15T01:32:45;40.23;;;12.47;;
20727;SDS011;10525;50.154;8.198;2023-02-15T01:35:12;39.53;;;12.93;;
20727;SDS011;10525;50.154;8.198;2023-02-15T01:37:38;55.90;;;13.60;;
20727;SDS011;10525;50.154;8.198;2023-02-15T01:40:06;50.57;;;15.50;;
20727;SDS011;10525;50.154;8.198;2023-02-15T01:42:37;40.70;;;12.17;;
20727;SDS011;10525;50.154;8.198;2023-02-15T01:45:04;41.97;;;12.27;;
20727;SDS011;10525;50.154;8.198;2023-02-15T01:47:48;36.90;;;13.10;;
20727;SDS011;10525;50.154;8.198;2023-02-15T01:50:20;47.73;;;13.20;;
20727;SDS011;10525;50.154;8.198;2023-02-15T01:52:52;40.17;;;12.27;;
20727;SDS011;10525;50.154;8.198;2023-02-15T01:55:23;39.60;;;11.47;;
20727;SDS011;10525;50.154;8.198;2023-02-15T01:57:52;43.63;;;13.20;;
20727;SDS011;10525;50.154;8.198;2023-02-15T02:00:20;34.63;;;12.50;;
20727;SDS011;10525;50.154;8.198;2023-02-15T02:02:49;36.77;;;12.13;;
20727;SDS011;10525;50.154;8.198;2023-02-15T02:05:18;41.67;;;11.87;;
20727;SDS011;10525;50.154;8.198;2023-02-15T02:07:45;34.97;;;11.37;;
20727;SDS011;10525;50.154;8.198;2023-02-15T02:10:15;33.13;;;11.27;;
20727;SDS011;10525;50.154;8.198;2023-02-15T02:12:43;30.23;;;11.30;;
20727;SDS011;10525;50.154;8.198;2023-02-15T02:15:13;36.37;;;12.23;;
20727;SDS011;10525;50.154;8.198;2023-02-15T02:17:42;33.10;;;10.93;;
20727;SDS011;10525;50.154;8.198;2023-02-15T02:23:16;48.37;;;12.17;;
20727;SDS011;10525;50.154;8.198;2023-02-15T02:29:12;48.73;;;12.53;;
20727;SDS011;10525;50.154;8.198;2023-02-15T02:32:24;35.57;;;12.10;;
20727;SDS011;10525;50.154;8.198;2023-02-15T02:35:19;39.50;;;11.93;;
20727;SDS011;10525;50.154;8.198;2023-02-15T02:37:51;45.13;;;13.17;;
20727;SDS011;10525;50.154;8.198;2023-02-15T02:40:28;50.53;;;14.23;;
20727;SDS011;10525;50.154;8.198;2023-02-15T02:43:02;46.27;;;13.07;;
20727;SDS011;10525;50.154;8.198;2023-02-15T02:45:38;76.77;;;15.30;;
20727;SDS011;10525;50.154;8.198;2023-02-15T02:48:09;49.73;;;13.50;;
20727;SDS011;10525;50.154;8.198;2023-02-15T02:50:41;88.87;;;13.70;;
20727;SDS011;10525;50.154;8.198;2023-02-15T02:53:08;49.27;;;13.10;;
20727;SDS011;10525;50.154;8.198;2023-02-15T02:55:38;52.30;;;13.17;;
20727;SDS011;10525;50.154;8.198;2023-02-15T02:58:09;62.83;;;13.03;;
20727;SDS011;10525;50.154;8.198;2023-02-15T03:00:40;44.87;;;14.73;;
20727;SDS011;10525;50.154;8.198;2023-02-15T03:03:12;49.63;;;13.67;;
20727;SDS011;10525;50.154;8.198;2023-02-15T03:05:44;68.60;;;14.50;;
20727;SDS011;10525;50.154;8.198;2023-02-15T03:08:15;56.30;;;13.47;;
20727;SDS011;10525;50.154;8.198;2023-02-15T03:10:47;69.37;;;15.20;;
20727;SDS011;10525;50.154;8.198;2023-02-15T03:13:17;47.60;;;13.67;;
20727;SDS011;10525;50.154;8.198;2023-02-15T03:15:44;51.23;;;14.47;;
20727;SDS011;10525;50.154;8.198;2023-02-15T03:18:30;56.03;;;14.33;;
20727;SDS011;10525;50.154;8.198;2023-02-15T03:21:03;70.47;;;17.63;;
20727;SDS011;10525;50.154;8.198;2023-02-15T03:23:31;67.47;;;14.60;;
20727;SDS011;10525;50.154;8.198;2023-02-15T03:26:00;53.73;;;14.80;;
20727;SDS011;10525;50.154;8.198;2023-02-15T03:28:30;89.50;;;16.20;;
20727;SDS011;10525;50.154;8.198;2023-02-15T03:31:02;42.00;;;13.50;;
20727;SDS011;10525;50.154;8.198;2023-02-15T03:33:31;46.40;;;12.37;;
20727;SDS011;10525;50.154;8.198;2023-02-15T03:36:04;38.53;;;12.43;;
20727;SDS011;10525;50.154;8.198;2023-02-15T03:38:40;40.10;;;12.80;;
20727;SDS011;10525;50.154;8.198;2023-02-15T03:41:14;47.47;;;13.93;;
20727;SDS011;10525;50.154;8.198;2023-02-15T03:43:46;47.50;;;13.53;;
20727;SDS011;10525;50.154;8.198;2023-02-15T03:46:20;57.50;;;14.57;;
20727;SDS011;10525;50.154;8.198;2023-02-15T03:48:53;50.23;;;14.93;;
20727;SDS011;10525;50.154;8.198;2023-02-15T03:51:25;42.13;;;12.30;;
20727;SDS011;10525;50.154;8.198;2023-02-15T03:54:00;37.90;;;13.87;;
20727;SDS011;10525;50.154;8.198;2023-02-15T03:56:30;38.47;;;12.83;;
20727;SDS011;10525;50.154;8.198;2023-02-15T03:58:57;46.13;;;12.77;;
20727;SDS011;10525;50.154;8.198;2023-02-15T04:01:43;42.20;;;13.87;;
20727;SDS011;10525;50.154;8.198;2023-02-15T04:04:23;52.43;;;13.63;;
20727;SDS011;10525;50.154;8.198;2023-02-15T04:06:58;42.67;;;12.10;;
20727;SDS011;10525;50.154;8.198;2023-02-15T04:09:25;38.03;;;12.53;;
20727;SDS011;10525;50.154;8.198;2023-02-15T04:12:09;35.03;;;12.60;;
20727;SDS011;10525;50.154;8.198;2023-02-15T04:14:36;45.07;;;12.83;;
20727;SDS011;10525;50.154;8.198;2023-02-15T04:17:20;44.87;;;13.00;;
20727;SDS011;10525;50.154;8.198;2023-02-15T04:19:47;82.80;;;14.27;;
20727;SDS011;10525;50.154;8.198;2023-02-15T04:22:32;45.90;;;11.70;;
20727;SDS011;10525;50.154;8.198;2023-02-15T04:25:17;41.13;;;11.60;;
20727;SDS011;10525;50.154;8.198;2023-02-15T04:27:44;43.67;;;12.43;;
20727;SDS011;10525;50.154;8.198;2023-02-15T04:30:14;44.90;;;11.97;;
20727;SDS011;10525;50.154;8.198;2023-02-15T04:32:41;46.07;;;12.33;;
20727;SDS011;10525;50.154;8.198;2023-02-15T04:35:08;40.30;;;13.13;;
20727;SDS011;10525;50.154;8.198;2023-02-15T04:37:37;47.57;;;14.00;;
20727;SDS011;10525;50.154;8.198;2023-02-15T04:40:05;43.67;;;12.30;;
20727;SDS011;10525;50.154;8.198;2023-02-15T04:42:33;48.40;;;13.03;;
20727;SDS011;10525;50.154;8.198;2023-02-15T04:45:00;42.50;;;12.77;;
20727;SDS011;10525;50.154;8.198;2023-02-15T04:47:27;59.37;;;13.37;;
20727;SDS011;10525;50.154;8.198;2023-02-15T04:49:53;43.13;;;12.90;;
20727;SDS011;10525;50.154;8.198;2023-02-15T04:52:20;48.60;;;12.00;;
20727;SDS011;10525;50.154;8.198;2023-02-15T04:54:48;52.77;;;13.83;;
20727;SDS011;10525;50.154;8.198;2023-02-15T04:57:15;37.77;;;12.23;;
20727;SDS011;10525;50.154;8.198;2023-02-15T04:59:42;42.17;;;12.27;;
20727;SDS011;10525;50.154;8.198;2023-02-15T05:02:08;115.07;;;18.27;;
20727;SDS011;10525;50.154;8.198;2023-02-15T05:04:35;61.17;;;12.70;;
20727;SDS011;10525;50.154;8.198;2023-02-15T05:07:02;62.87;;;13.77;;
20727;SDS011;10525;50.154;8.198;2023-02-15T05:09:28;47.57;;;14.17;;
20727;SDS011;10525;50.154;8.198;2023-02-15T05:11:56;91.33;;;14.67;;
20727;SDS011;10525;50.154;8.198;2023-02-15T05:14:23;67.37;;;13.93;;
20727;SDS011;10525;50.154;8.198;2023-02-15T05:16:50;46.47;;;13.33;;
20727;SDS011;10525;50.154;8.198;2023-02-15T05:19:16;105.63;;;16.17;;
20727;SDS011;10525;50.154;8.198;2023-02-15T05:21:43;43.10;;;13.00;;
20727;SDS011;10525;50.154;8.198;2023-02-15T05:24:10;76.07;;;15.80;;
20727;SDS011;10525;50.154;8.198;2023-02-15T05:26:50;60.37;;;15.10;;
20727;SDS011;10525;50.154;8.198;2023-02-15T05:29:36;123.37;;;15.43;;
20727;SDS011;10525;50.154;8.198;2023-02-15T05:32:02;78.30;;;13.80;;
20727;SDS011;10525;50.154;8.198;2023-02-15T05:34:30;161.80;;;16.83;;
20727;SDS011;10525;50.154;8.198;2023-02-15T05:36:56;63.50;;;13.40;;
20727;SDS011;10525;50.154;8.198;2023-02-15T05:39:23;97.97;;;17.57;;
20727;SDS011;10525;50.154;8.198;2023-02-15T05:41:50;171.63;;;22.40;;
20727;SDS011;10525;50.154;8.198;2023-02-15T05:44:16;97.33;;;13.70;;
20727;SDS011;10525;50.154;8.198;2023-02-15T05:46:44;72.50;;;14.50;;
20727;SDS011;10525;50.154;8.198;2023-02-15T05:49:11;48.87;;;12.90;;
20727;SDS011;10525;50.154;8.198;2023-02-15T05:51:38;66.73;;;12.63;;
20727;SDS011;10525;50.154;8.198;2023-02-15T05:54:04;62.80;;;12.17;;
20727;SDS011;10525;50.154;8.198;2023-02-15T05:56:31;66.17;;;12.67;;
20727;SDS011;10525;50.154;8.198;2023-02-15T05:58:58;106.87;;;13.63;;
20727;SDS011;10525;50.154;8.198;2023-02-15T06:01:24;88.40;;;13.43;;
20727;SDS011;10525;50.154;8.198;2023-02-15T06:03:52;118.03;;;15.53;;
20727;SDS011;10525;50.154;8.198;2023-02-15T06:06:20;132.63;;;16.43;;
20727;SDS011;10525;50.154;8.198;2023-02-15T06:08:47;88.63;;;16.03;;
20727;SDS011;10525;50.154;8.198;2023-02-15T06:11:14;103.13;;;16.27;;
20727;SDS011;10525;50.154;8.198;2023-02-15T06:13:40;87.83;;;14.83;;
20727;SDS011;10525;50.154;8.198;2023-02-15T06:16:07;106.87;;;13.93;;
20727;SDS011;10525;50.154;8.198;2023-02-15T06:18:34;80.67;;;14.67;;
20727;SDS011;10525;50.154;8.198;2023-02-15T06:21:02;134.67;;;15.30;;
20727;SDS011;10525;50.154;8.198;2023-02-15T06:23:29;74.53;;;13.30;;
20727;SDS011;10525;50.154;8.198;2023-02-15T06:25:55;67.83;;;13.27;;
20727;SDS011;10525;50.154;8.198;2023-02-15T06:28:22;53.87;;;13.47;;
20727;SDS011;10525;50.154;8.198;2023-02-15T06:30:50;58.63;;;14.20;;
20727;SDS011;10525;50.154;8.198;2023-02-15T06:33:17;89.27;;;12.87;;
20727;SDS011;10525;50.154;8.198;2023-02-15T06:35:44;115.20;;;15.30;;
20727;SDS011;10525;50.154;8.198;2023-02-15T06:38:12;114.60;;;17.23;;
20727;SDS011;10525;50.154;8.198;2023-02-15T06:40:39;53.17;;;13.27;;
20727;SDS011;10525;50.154;8.198;2023-02-15T06:43:06;182.13;;;20.00;;
20727;SDS011;10525;50.154;8.198;2023-02-15T06:45:32;156.57;;;19.67;;
20727;SDS011;10525;50.154;8.198;2023-02-15T06:47:59;69.53;;;13.40;;
20727;SDS011;10525;50.154;8.198;2023-02-15T06:50:26;73.43;;;13.47;;
20727;SDS011;10525;50.154;8.198;2023-02-15T06:52:55;59.73;;;12.77;;
20727;SDS011;10525;50.154;8.198;2023-02-15T06:55:23;65.57;;;14.10;;
20727;SDS011;10525;50.154;8.198;2023-02-15T06:57:50;63.37;;;13.57;;
20727;SDS011;10525;50.154;8.198;2023-02-15T07:00:17;176.73;;;26.00;;
20727;SDS011;10525;50.154;8.198;2023-02-15T07:02:44;68.17;;;13.83;;
20727;SDS011;10525;50.154;8.198;2023-02-15T07:05:10;72.57;;;15.40;;
20727;SDS011;10525;50.154;8.198;2023-02-15T07:07:37;80.07;;;14.40;;
20727;SDS011;10525;50.154;8.198;2023-02-15T07:10:04;92.70;;;14.47;;
20727;SDS011;10525;50.154;8.198;2023-02-15T07:12:33;130.13;;;16.43;;
20727;SDS011;10525;50.154;8.198;2023-02-15T07:15:09;102.57;;;15.27;;
20727;SDS011;10525;50.154;8.198;2023-02-15T07:17:36;99.00;;;15.53;;
20727;SDS011;10525;50.154;8.198;2023-02-15T07:20:04;125.43;;;16.37;;
20727;SDS011;10525;50.154;8.198;2023-02-15T07:22:32;123.63;;;15.70;;
20727;SDS011;10525;50.154;8.198;2023-02-15T07:25:01;152.60;;;18.70;;
20727;SDS011;10525;50.154;8.198;2023-02-15T07:27:28;75.97;;;14.97;;
20727;SDS011;10525;50.154;8.198;2023-02-15T07:29:57;98.80;;;15.97;;
20727;SDS011;10525;50.154;8.198;2023-02-15T07:32:26;95.10;;;17.73;;
20727;SDS011;10525;50.154;8.198;2023-02-15T07:34:54;275.33;;;19.87;;
20727;SDS011;10525;50.154;8.198;2023-02-15T07:37:21;238.77;;;28.53;;
20727;SDS011;10525;50.154;8.198;2023-02-15T07:39:48;123.00;;;16.10;;
20727;SDS011;10525;50.154;8.198;2023-02-15T07:42:14;156.57;;;16.93;;
20727;SDS011;10525;50.154;8.198;2023-02-15T07:44:42;90.63;;;14.73;;
20727;SDS011;10525;50.154;8.198;2023-02-15T07:47:10;170.60;;;18.47;;
20727;SDS011;10525;50.154;8.198;2023-02-15T07:49:37;163.00;;;19.17;;
20727;SDS011;10525;50.154;8.198;2023-02-15T07:52:04;128.83;;;17.87;;
20727;SDS011;10525;50.154;8.198;2023-02-15T07:54:31;119.77;;;13.83;;
20727;SDS011;10525;50.154;8.198;2023-02-15T07:56:57;76.57;;;13.53;;
20727;SDS011;10525;50.154;8.198;2023-02-15T07:59:26;168.07;;;15.70;;
20727;SDS011;10525;50.154;8.198;2023-02-15T08:01:52;92.87;;;13.27;;
20727;SDS011;10525;50.154;8.198;2023-02-15T08:04:22;73.93;;;14.03;;
20727;SDS011;10525;50.154;8.198;2023-02-15T08:06:51;44.17;;;11.63;;
20727;SDS011;10525;50.154;8.198;2023-02-15T08:09:18;36.87;;;10.67;;
20727;SDS011;10525;50.154;8.198;2023-02-15T08:11:46;76.60;;;12.47;;
20727;SDS011;10525;50.154;8.198;2023-02-15T08:14:13;43.33;;;11.60;;
20727;SDS011;10525;50.154;8.198;2023-02-15T08:16:42;68.63;;;11.00;;
20727;SDS011;10525;50.154;8.198;2023-02-15T08:19:10;52.70;;;10.20;;
20727;SDS011;10525;50.154;8.198;2023-02-15T08:21:40;64.37;;;12.57;;
20727;SDS011;10525;50.154;8.198;2023-02-15T08:24:08;55.50;;;11.07;;
20727;SDS011;10525;50.154;8.198;2023-02-15T08:26:36;76.47;;;10.97;;
20727;SDS011;10525;50.154;8.198;2023-02-15T08:29:04;55.10;;;10.50;;
20727;SDS011;10525;50.154;8.198;2023-02-15T08:31:33;58.37;;;9.40;;
20727;SDS011;10525;50.154;8.198;2023-02-15T08:34:02;97.00;;;11.80;;
20727;SDS011;10525;50.154;8.198;2023-02-15T08:36:29;91.03;;;11.70;;
20727;SDS011;10525;50.154;8.198;2023-02-15T08:38:59;91.30;;;11.07;;
20727;SDS011;10525;50.154;8.198;2023-02-15T08:41:27;104.63;;;14.40;;
20727;SDS011;10525;50.154;8.198;2023-02-15T08:43:56;66.43;;;10.13;;
20727;SDS011;10525;50.154;8.198;2023-02-15T08:46:24;40.27;;;9.87;;
20727;SDS011;10525;50.154;8.198;2023-02-15T08:48:53;163.53;;;13.63;;
20727;SDS011;10525;50.154;8.198;2023-02-15T08:51:20;123.40;;;11.87;;
20727;SDS011;10525;50.154;8.198;2023-02-15T08:53:49;87.40;;;12.97;;
20727;SDS011;10525;50.154;8.198;2023-02-15T08:56:19;127.00;;;14.07;;
20727;SDS011;10525;50.154;8.198;2023-02-15T08:58:47;166.57;;;20.90;;
20727;SDS011;10525;50.154;8.198;2023-02-15T09:01:14;37.33;;;9.60;;
20727;SDS011;10525;50.154;8.198;2023-02-15T09:03:45;30.67;;;9.57;;
20727;SDS011;10525;50.154;8.198;2023-02-15T09:06:12;158.03;;;14.83;;
20727;SDS011;10525;50.154;8.198;2023-02-15T09:08:39;42.27;;;9.57;;
20727;SDS011;10525;50.154;8.198;2023-02-15T09:11:06;193.70;;;15.70;;
20727;SDS011;10525;50.154;8.198;2023-02-15T09:13:36;58.63;;;10.43;;
20727;SDS011;10525;50.154;8.198;2023-02-15T09:16:03;77.53;;;10.23;;
20727;SDS011;10525;50.154;8.198;2023-02-15T09:18:33;47.87;;;9.93;;
20727;SDS011;10525;50.154;8.198;2023-02-15T09:21:05;130.97;;;14.23;;
20727;SDS011;10525;50.154;8.198;2023-02-15T09:23:34;70.33;;;10.37;;
20727;SDS011;10525;50.154;8.198;2023-02-15T09:26:04;53.93;;;10.93;;
20727;SDS011;10525;50.154;8.198;2023-02-15T09:28:33;88.30;;;11.57;;
20727;SDS011;10525;50.154;8.198;2023-02-15T09:31:06;68.30;;;9.90;;
20727;SDS011;10525;50.154;8.198;2023-02-15T09:33:37;66.53;;;9.47;;
20727;SDS011;10525;50.154;8.198;2023-02-15T09:36:05;48.87;;;10.27;;
20727;SDS011;10525;50.154;8.198;2023-02-15T09:38:39;24.63;;;9.47;;
20727;SDS011;10525;50.154;8.198;2023-02-15T09:41:11;33.60;;;9.73;;
20727;SDS011;10525;50.154;8.198;2023-02-15T09:43:50;132.47;;;13.73;;
20727;SDS011;10525;50.154;8.198;2023-02-15T09:46:29;20.27;;;8.57;;
20727;SDS011;10525;50.154;8.198;2023-02-15T09:49:06;72.10;;;11.07;;
20727;SDS011;10525;50.154;8.198;2023-02-15T09:51:45;105.90;;;11.67;;
20727;SDS011;10525;50.154;8.198;2023-02-15T09:54:38;53.57;;;9.90;;
20727;SDS011;10525;50.154;8.198;2023-02-15T09:57:16;71.70;;;11.67;;
20727;SDS011;10525;50.154;8.198;2023-02-15T09:59:52;37.93;;;9.30;;
20727;SDS011;10525;50.154;8.198;2023-02-15T10:02:30;30.10;;;9.13;;
20727;SDS011;10525;50.154;8.198;2023-02-15T10:05:13;24.33;;;9.77;;
20727;SDS011;10525;50.154;8.198;2023-02-15T10:07:52;25.73;;;9.50;;
20727;SDS011;10525;50.154;8.198;2023-02-15T10:10:33;41.43;;;11.07;;
20727;SDS011;10525;50.154;8.198;2023-02-15T10:13:13;29.53;;;10.23;;
20727;SDS011;10525;50.154;8.198;2023-02-15T10:15:55;23.77;;;9.57;;
20727;SDS011;10525;50.154;8.198;2023-02-15T10:18:37;18.47;;;8.03;;
20727;SDS011;10525;50.154;8.198;2023-02-15T10:21:17;19.77;;;7.93;;
20727;SDS011;10525;50.154;8.198;2023-02-15T10:23:59;24.10;;;9.90;;
20727;SDS011;10525;50.154;8.198;2023-02-15T10:26:42;21.43;;;8.87;;
20727;SDS011;10525;50.154;8.198;2023-02-15T10:29:12;23.48;;;8.65;;
20727;SDS011;10525;50.154;8.198;2023-02-15T10:31:49;30.00;;;9.05;;
20727;SDS011;10525;50.154;8.198;2023-02-15T10:34:20;24.40;;;8.70;;
20727;SDS011;10525;50.154;8.198;2023-02-15T10:36:53;25.30;;;9.73;;
20727;SDS011;10525;50.154;8.198;2023-02-15T10:39:37;24.63;;;8.17;;
20727;SDS011;10525;50.154;8.198;2023-02-15T10:42:10;30.03;;;9.37;;
20727;SDS011;10525;50.154;8.198;2023-02-15T10:44:48;23.70;;;9.17;;
20727;SDS011;10525;50.154;8.198;2023-02-15T10:47:31;22.93;;;8.77;;
20727;SDS011;10525;50.154;8.198;2023-02-15T10:50:23;31.97;;;8.50;;
20727;SDS011;10525;50.154;8.198;2023-02-15T10:52:58;22.17;;;7.87;;
20727;SDS011;10525;50.154;8.198;2023-02-15T10:55:36;21.37;;;8.40;;
20727;SDS011;10525;50.154;8.198;2023-02-15T10:58:12;29.57;;;9.90;;
20727;SDS011;10525;50.154;8.198;2023-02-15T11:00:51;22.03;;;8.97;;
20727;SDS011;10525;50.154;8.198;2023-02-15T11:03:36;26.73;;;9.07;;
20727;SDS011;10525;50.154;8.198;2023-02-15T11:06:17;21.87;;;8.37;;
20727;SDS011;10525;50.154;8.198;2023-02-15T11:08:46;40.97;;;9.33;;
20727;SDS011;10525;50.154;8.198;2023-02-15T11:11:19;28.00;;;8.85;;
20727;SDS011;10525;50.154;8.198;2023-02-15T11:13:50;20.43;;;7.90;;
20727;SDS011;10525;50.154;8.198;2023-02-15T11:16:21;24.77;;;8.63;;
20727;SDS011;10525;50.154;8.198;2023-02-15T11:18:53;24.63;;;8.50;;
20727;SDS011;10525;50.154;8.198;2023-02-15T11:21:26;19.63;;;8.27;;
20727;SDS011;10525;50.154;8.198;2023-02-15T11:23:55;18.48;;;8.30;;
20727;SDS011;10525;50.154;8.198;2023-02-15T11:26:24;22.58;;;8.55;;
20727;SDS011;10525;50.154;8.198;2023-02-15T11:28:58;24.80;;;9.40;;
20727;SDS011;10525;50.154;8.198;2023-02-15T11:31:29;31.27;;;8.30;;
20727;SDS011;10525;50.154;8.198;2023-02-15T11:34:04;26.67;;;8.57;;
20727;SDS011;10525;50.154;8.198;2023-02-15T11:36:40;20.30;;;9.20;;
20727;SDS011;10525;50.154;8.198;2023-02-15T11:39:09;18.15;;;8.80;;
20727;SDS011;10525;50.154;8.198;2023-02-15T11:41:39;20.13;;;8.60;;
20727;SDS011;10525;50.154;8.198;2023-02-15T11:44:11;22.33;;;9.07;;
20727;SDS011;10525;50.154;8.198;2023-02-15T11:46:42;25.60;;;9.15;;
20727;SDS011;10525;50.154;8.198;2023-02-15T11:49:10;21.98;;;9.30;;
20727;SDS011;10525;50.154;8.198;2023-02-15T11:51:50;24.52;;;9.57;;
20727;SDS011;10525;50.154;8.198;2023-02-15T11:54:18;20.83;;;9.38;;
20727;SDS011;10525;50.154;8.198;2023-02-15T11:56:47;24.83;;;10.38;;
20727;SDS011;10525;50.154;8.198;2023-02-15T11:59:16;29.27;;;11.40;;
20727;SDS011;10525;50.154;8.198;2023-02-15T12:01:50;27.27;;;9.38;;
20727;SDS011;10525;50.154;8.198;2023-02-15T12:04:18;22.13;;;9.77;;
20727;SDS011;10525;50.154;8.198;2023-02-15T12:06:51;23.38;;;9.35;;
20727;SDS011;10525;50.154;8.198;2023-02-15T12:09:24;22.25;;;10.20;;
20727;SDS011;10525;50.154;8.198;2023-02-15T12:14:50;23.25;;;9.55;;
20727;SDS011;10525;50.154;8.198;2023-02-15T12:17:17;20.55;;;9.05;;
20727;SDS011;10525;50.154;8.198;2023-02-15T12:19:46;31.25;;;10.10;;
20727;SDS011;10525;50.154;8.198;2023-02-15T12:22:19;23.17;;;9.65;;
20727;SDS011;10525;50.154;8.198;2023-02-15T12:24:49;19.90;;;9.32;;
20727;SDS011;10525;50.154;8.198;2023-02-15T12:27:19;20.90;;;9.73;;
20727;SDS011;10525;50.154;8.198;2023-02-15T12:29:48;20.95;;;9.88;;
20727;SDS011;10525;50.154;8.198;2023-02-15T12:32:17;22.33;;;9.95;;
20727;SDS011;10525;50.154;8.198;2023-02-15T12:34:47;25.70;;;10.18;;
20727;SDS011;10525;50.154;8.198;2023-02-15T12:37:16;24.38;;;10.48;;
20727;SDS011;10525;50.154;8.198;2023-02-15T12:39:51;23.65;;;11.05;;
20727;SDS011;10525;50.154;8.198;2023-02-15T12:42:19;23.05;;;10.68;;
20727;SDS011;10525;50.154;8.198;2023-02-15T12:44:53;23.70;;;10.65;;
20727;SDS011;10525;50.154;8.198;2023-02-15T12:47:25;24.58;;;11.43;;
20727;SDS011;10525;50.154;8.198;2023-02-15T12:50:10;22.75;;;10.50;;
20727;SDS011;10525;50.154;8.198;2023-02-15T12:52:44;23.42;;;11.30;;
20727;SDS011;10525;50.154;8.198;2023-02-15T12:55:20;23.38;;;10.75;;
20727;SDS011;10525;50.154;8.198;2023-02-15T12:57:49;26.17;;;12.10;;
20727;SDS011;10525;50.154;8.198;2023-02-15T13:00:30;25.90;;;10.93;;
20727;SDS011;10525;50.154;8.198;2023-02-15T13:02:57;27.65;;;11.43;;
20727;SDS011;10525;50.154;8.198;2023-02-15T13:05:26;26.75;;;11.88;;
20727;SDS011;10525;50.154;8.198;2023-02-15T13:07:59;25.13;;;10.80;;
20727;SDS011;10525;50.154;8.198;2023-02-15T13:10:29;18.83;;;10.55;;
20727;SDS011;10525;50.154;8.198;2023-02-15T13:12:57;22.63;;;11.40;;
20727;SDS011;10525;50.154;8.198;2023-02-15T13:15:29;25.33;;;11.63;;
20727;SDS011;10525;50.154;8.198;2023-02-15T13:18:00;27.55;;;11.73;;
20727;SDS011;10525;50.154;8.198;2023-02-15T13:20:28;26.77;;;12.18;;
20727;SDS011;10525;50.154;8.198;2023-02-15T13:22:57;27.75;;;11.55;;
20727;SDS011;10525;50.154;8.198;2023-02-15T13:25:31;23.67;;;11.10;;
20727;SDS011;10525;50.154;8.198;2023-02-15T13:28:05;24.40;;;10.52;;
20727;SDS011;10525;50.154;8.198;2023-02-15T13:30:37;31.10;;;12.10;;
20727;SDS011;10525;50.154;8.198;2023-02-15T13:33:10;31.85;;;12.15;;
20727;SDS011;10525;50.154;8.198;2023-02-15T13:35:43;24.60;;;11.07;;
20727;SDS011;10525;50.154;8.198;2023-02-15T13:41:09;30.95;;;13.30;;
20727;SDS011;10525;50.154;8.198;2023-02-15T13:43:43;31.30;;;13.30;;
20727;SDS011;10525;50.154;8.198;2023-02-15T13:46:23;27.13;;;12.02;;
20727;SDS011;10525;50.154;8.198;2023-02-15T13:49:04;31.35;;;12.75;;
20727;SDS011;10525;50.154;8.198;2023-02-15T13:51:40;35.50;;;12.80;;
20727;SDS011;10525;50.154;8.198;2023-02-15T13:54:25;27.52;;;12.13;;
20727;SDS011;10525;50.154;8.198;2023-02-15T13:57:05;32.63;;;12.85;;
20727;SDS011;10525;50.154;8.198;2023-02-15T13:59:53;32.17;;;11.98;;
20727;SDS011;10525;50.154;8.198;2023-02-15T14:02:43;36.35;;;13.77;;
20727;SDS011;10525;50.154;8.198;2023-02-15T14:05:37;27.63;;;13.10;;
20727;SDS011;10525;50.154;8.198;2023-02-15T14:08:16;32.05;;;12.45;;
20727;SDS011;10525;50.154;8.198;2023-02-15T14:10:53;31.75;;;13.65;;
20727;SDS011;10525;50.154;8.198;2023-02-15T14:13:34;31.65;;;12.27;;
20727;SDS011;10525;50.154;8.198;2023-02-15T14:16:13;29.00;;;12.90;;
20727;SDS011;10525;50.154;8.198;2023-02-15T14:18:48;28.08;;;12.32;;
20727;SDS011;10525;50.154;8.198;2023-02-15T14:21:17;28.20;;;12.15;;
20727;SDS011;10525;50.154;8.198;2023-02-15T14:23:54;33.20;;;14.02;;
20727;SDS011;10525;50.154;8.198;2023-02-15T14:26:32;34.90;;;13.77;;
20727;SDS011;10525;50.154;8.198;2023-02-15T14:29:08;33.88;;;14.00;;
20727;SDS011;10525;50.154;8.198;2023-02-15T14:31:45;29.23;;;12.93;;
20727;SDS011;10525;50.154;8.198;2023-02-15T14:34:18;24.77;;;12.13;;
20727;SDS011;10525;50.154;8.198;2023-02-15T14:36:49;31.25;;;13.05;;
20727;SDS011;10525;50.154;8.198;2023-02-15T14:39:20;27.23;;;12.68;;
20727;SDS011;10525;50.154;8.198;2023-02-15T14:42:17;27.25;;;12.05;;
20727;SDS011;10525;50.154;8.198;2023-02-15T14:44:49;31.45;;;12.48;;
20727;SDS011;10525;50.154;8.198;2023-02-15T14:47:24;29.13;;;13.82;;
20727;SDS011;10525;50.154;8.198;2023-02-15T14:49:57;34.03;;;11.98;;
20727;SDS011;10525;50.154;8.198;2023-02-15T14:52:24;27.83;;;12.23;;
20727;SDS011;10525;50.154;8.198;2023-02-15T14:54:55;29.25;;;11.68;;
20727;SDS011;10525;50.154;8.198;2023-02-15T14:57:31;25.02;;;12.07;;
20727;SDS011;10525;50.154;8.198;2023-02-15T14:59:59;24.25;;;11.75;;